createdAt,value
2018-11-13T00:00:39.260Z,8.30
2018-11-13T00:03:07.804Z,8.30
2018-11-13T00:05:36.411Z,8.40
2018-11-13T00:08:05.144Z,8.40
2018-11-13T00:10:33.695Z,8.30
2018-11-13T00:13:02.330Z,8.30
2018-11-13T00:15:30.891Z,8.20
2018-11-13T00:17:59.453Z,8.30
2018-11-13T00:20:28.110Z,8.30
2018-11-13T00:22:56.698Z,8.30
2018-11-13T00:25:25.656Z,8.30
2018-11-13T00:27:54.829Z,8.30
2018-11-13T00:30:24.511Z,8.30
2018-11-13T00:32:53.792Z,8.30
2018-11-13T00:35:22.848Z,8.20
2018-11-13T00:37:51.715Z,8.20
2018-11-13T00:40:20.343Z,8.20
2018-11-13T00:42:49.383Z,8.20
2018-11-13T00:45:18.470Z,8.10
2018-11-13T00:47:47.012Z,8.10
2018-11-13T00:50:19.765Z,8.10
2018-11-13T00:52:48.544Z,8.00
2018-11-13T00:55:17.087Z,8.00
2018-11-13T00:57:45.891Z,7.90
2018-11-13T01:00:16.221Z,7.80
2018-11-13T01:02:44.997Z,7.80
2018-11-13T01:05:15.915Z,7.80
2018-11-13T01:07:45.470Z,7.80
2018-11-13T01:10:14.805Z,7.80
2018-11-13T01:12:44.289Z,7.80
2018-11-13T01:15:14.180Z,7.80
2018-11-13T01:17:43.454Z,7.80
2018-11-13T01:20:12.138Z,7.90
2018-11-13T01:22:41.050Z,7.90
2018-11-13T01:25:10.892Z,7.90
2018-11-13T01:27:39.943Z,7.90
2018-11-13T01:30:09.792Z,7.90
2018-11-13T01:32:39.153Z,7.90
2018-11-13T01:35:09.737Z,7.80
2018-11-13T01:37:38.303Z,7.90
2018-11-13T01:40:09.596Z,7.80
2018-11-13T01:42:38.196Z,7.70
2018-11-13T01:45:07.837Z,7.70
2018-11-13T01:47:36.407Z,7.60
2018-11-13T01:50:05.239Z,7.60
2018-11-13T01:52:34.488Z,7.50
2018-11-13T01:55:02.759Z,7.50
2018-11-13T01:57:31.308Z,7.50
2018-11-13T01:59:59.846Z,7.50
2018-11-13T02:02:28.882Z,7.50
2018-11-13T02:04:57.433Z,7.50
2018-11-13T02:07:25.993Z,7.50
2018-11-13T02:09:54.527Z,7.40
2018-11-13T02:12:23.090Z,7.40
2018-11-13T02:14:51.672Z,7.40
2018-11-13T02:17:20.228Z,7.30
2018-11-13T02:19:48.791Z,7.20
2018-11-13T02:22:17.340Z,7.20
2018-11-13T02:24:45.904Z,7.20
2018-11-13T02:27:14.455Z,7.20
2018-11-13T02:29:43.613Z,7.20
2018-11-13T02:32:12.181Z,7.10
2018-11-13T02:34:40.753Z,7.10
2018-11-13T02:37:09.633Z,7.00
2018-11-13T02:39:38.151Z,7.00
2018-11-13T02:42:06.744Z,6.80
2018-11-13T02:44:35.292Z,6.70
2018-11-13T02:47:03.868Z,6.60
2018-11-13T02:49:32.392Z,6.50
2018-11-13T02:52:00.960Z,6.50
2018-11-13T02:54:29.524Z,6.40
2018-11-13T02:56:58.449Z,6.40
2018-11-13T02:59:26.975Z,6.40
2018-11-13T03:01:55.508Z,6.30
2018-11-13T03:04:24.089Z,6.30
2018-11-13T03:06:52.631Z,6.20
2018-11-13T03:09:21.184Z,6.10
2018-11-13T03:11:50.256Z,6.10
2018-11-13T03:14:18.795Z,6.20
2018-11-13T03:16:47.329Z,6.20
2018-11-13T03:19:15.881Z,6.30
2018-11-13T03:21:45.199Z,6.20
2018-11-13T03:24:13.751Z,6.30
2018-11-13T03:26:42.824Z,6.30
2018-11-13T03:29:11.368Z,6.30
2018-11-13T03:31:40.001Z,6.30
2018-11-13T03:34:08.541Z,6.30
2018-11-13T03:36:37.150Z,6.20
2018-11-13T03:39:08.720Z,6.30
2018-11-13T03:41:37.529Z,6.30
2018-11-13T03:44:06.699Z,6.30
2018-11-13T03:46:35.236Z,6.40
2018-11-13T03:49:03.818Z,6.40
2018-11-13T03:51:33.008Z,6.50
2018-11-13T03:54:01.572Z,6.60
2018-11-13T03:56:30.770Z,6.60
2018-11-13T03:58:59.416Z,6.60
2018-11-13T04:01:28.244Z,6.50
2018-11-13T04:03:57.079Z,6.40
2018-11-13T04:06:25.620Z,6.40
2018-11-13T04:08:54.145Z,6.40
2018-11-13T04:11:22.676Z,6.30
2018-11-13T04:13:51.238Z,6.20
2018-11-13T04:16:20.227Z,6.20
2018-11-13T04:18:48.780Z,6.10
2018-11-13T04:21:17.343Z,6.10
2018-11-13T04:23:46.811Z,6.00
2018-11-13T04:26:15.352Z,5.90
2018-11-13T04:28:43.891Z,5.90
2018-11-13T04:31:12.528Z,5.80
2018-11-13T04:33:41.080Z,5.90
2018-11-13T04:36:09.631Z,5.80
2018-11-13T04:38:38.181Z,5.80
2018-11-13T04:41:08.072Z,5.80
2018-11-13T04:43:36.619Z,5.70
2018-11-13T04:46:05.344Z,5.70
2018-11-13T04:48:33.906Z,5.70
2018-11-13T04:51:02.459Z,5.70
2018-11-13T04:53:31.492Z,5.70
2018-11-13T04:56:00.060Z,5.70
2018-11-13T04:58:28.616Z,5.70
2018-11-13T05:00:58.247Z,5.80
2018-11-13T05:03:26.776Z,5.90
2018-11-13T05:05:55.328Z,6.00
2018-11-13T05:08:23.906Z,6.00
2018-11-13T05:10:52.443Z,6.00
2018-11-13T05:13:20.976Z,6.00
2018-11-13T05:15:49.540Z,6.10
2018-11-13T05:18:18.104Z,6.20
2018-11-13T05:20:46.664Z,6.20
2018-11-13T05:23:15.269Z,6.20
2018-11-13T05:25:43.787Z,6.30
2018-11-13T05:28:12.340Z,6.30
2018-11-13T05:30:40.896Z,6.30
2018-11-13T05:33:09.431Z,6.30
2018-11-13T05:35:37.980Z,6.30
2018-11-13T05:38:06.572Z,6.30
2018-11-13T05:40:35.102Z,6.30
2018-11-13T05:43:03.651Z,6.40
2018-11-13T05:45:32.196Z,6.40
2018-11-13T05:48:00.752Z,6.40
2018-11-13T05:50:29.299Z,6.40
2018-11-13T05:52:57.874Z,6.50
2018-11-13T05:55:26.433Z,6.50
2018-11-13T05:57:55.043Z,6.50
2018-11-13T06:00:33.184Z,6.50
2018-11-13T06:03:02.585Z,6.60
2018-11-13T06:05:31.521Z,6.60
2018-11-13T06:08:00.072Z,6.60
2018-11-13T06:10:28.653Z,6.60
2018-11-13T06:12:57.235Z,6.60
2018-11-13T06:15:25.811Z,6.70
2018-11-13T06:17:54.347Z,6.70
2018-11-13T06:20:22.899Z,6.60
2018-11-13T06:22:51.436Z,6.60
2018-11-13T06:25:19.985Z,6.70
2018-11-13T06:27:49.285Z,6.70
2018-11-13T06:30:20.156Z,6.70
2018-11-13T06:32:49.176Z,6.70
2018-11-13T06:35:17.804Z,6.70
2018-11-13T06:37:46.323Z,6.70
2018-11-13T06:40:14.911Z,6.80
2018-11-13T06:42:43.506Z,6.90
2018-11-13T06:45:16.911Z,7.00
2018-11-13T06:47:46.125Z,7.00
2018-11-13T06:50:14.744Z,7.10
2018-11-13T06:52:44.028Z,7.20
2018-11-13T06:55:42.726Z,7.20
2018-11-13T06:58:11.256Z,7.30
2018-11-13T07:00:39.836Z,7.40
2018-11-13T07:03:08.544Z,7.40
2018-11-13T07:05:37.100Z,7.40
2018-11-13T07:08:05.700Z,7.40
2018-11-13T07:10:34.269Z,7.40
2018-11-13T07:13:02.856Z,7.30
2018-11-13T07:15:32.037Z,7.20
2018-11-13T07:18:02.760Z,7.30
2018-11-13T07:20:32.572Z,7.40
2018-11-13T07:23:01.147Z,7.50
2018-11-13T07:25:29.839Z,7.60
2018-11-13T07:27:58.299Z,7.70
2018-11-13T07:30:27.505Z,7.90
2018-11-13T07:32:56.063Z,8.10
2018-11-13T07:35:24.607Z,8.20
2018-11-13T07:37:56.500Z,8.30
2018-11-13T07:40:25.144Z,8.30
2018-11-13T07:42:53.856Z,8.30
2018-11-13T07:45:22.392Z,8.40
2018-11-13T07:47:51.386Z,8.50
2018-11-13T07:50:19.808Z,8.60
2018-11-13T07:52:48.335Z,8.60
2018-11-13T07:55:17.271Z,8.70
2018-11-13T07:57:45.901Z,8.70
2018-11-13T08:00:17.096Z,8.80
2018-11-13T08:02:47.103Z,8.90
2018-11-13T08:05:15.640Z,9.00
2018-11-13T08:07:44.191Z,9.10
2018-11-13T08:10:13.329Z,9.30
2018-11-13T08:12:41.983Z,9.50
2018-11-13T08:15:13.068Z,9.70
2018-11-13T08:17:42.111Z,9.90
2018-11-13T08:20:12.140Z,10.00
2018-11-13T08:22:41.035Z,10.20
2018-11-13T08:25:10.137Z,10.30
2018-11-13T08:27:39.767Z,10.40
2018-11-13T08:30:10.000Z,10.50
2018-11-13T08:32:38.556Z,10.60
2018-11-13T08:35:07.486Z,10.60
2018-11-13T08:37:36.023Z,10.70
2018-11-13T08:40:05.203Z,10.80
2018-11-13T08:42:33.761Z,10.80
2018-11-13T08:45:02.332Z,10.90
2018-11-13T08:47:30.893Z,10.90
2018-11-13T08:49:59.436Z,10.90
2018-11-13T08:52:28.028Z,11.00
2018-11-13T08:54:56.671Z,11.10
2018-11-13T08:57:25.219Z,11.10
2018-11-13T08:59:53.773Z,11.20
2018-11-13T09:02:22.335Z,11.30
2018-11-13T09:04:50.932Z,11.30
2018-11-13T09:07:19.476Z,11.40
2018-11-13T09:09:48.037Z,11.50
2018-11-13T09:12:16.693Z,11.50
2018-11-13T09:14:45.192Z,11.50
2018-11-13T09:17:13.764Z,11.50
2018-11-13T09:19:42.430Z,11.40
2018-11-13T09:22:10.891Z,11.30
2018-11-13T09:24:39.573Z,11.40
2018-11-13T09:27:08.142Z,11.40
2018-11-13T09:29:36.714Z,11.30
2018-11-13T09:32:05.364Z,11.30
2018-11-13T09:34:33.912Z,11.20
2018-11-13T09:37:02.572Z,11.20
2018-11-13T09:39:31.120Z,11.20
2018-11-13T09:41:59.661Z,11.20
2018-11-13T09:44:28.200Z,11.20
2018-11-13T09:46:56.739Z,11.30
2018-11-13T09:49:25.307Z,11.30
2018-11-13T09:51:53.844Z,11.30
2018-11-13T09:54:22.396Z,11.20
2018-11-13T09:56:50.968Z,11.30
2018-11-13T09:59:19.652Z,11.20
2018-11-13T10:01:48.924Z,11.30
2018-11-13T10:04:17.325Z,11.30
2018-11-13T10:06:45.423Z,11.30
2018-11-13T10:09:14.355Z,11.20
2018-11-13T10:11:43.896Z,11.20
2018-11-13T10:14:12.952Z,11.20
2018-11-13T10:16:41.925Z,11.20
2018-11-13T10:19:11.244Z,11.10
2018-11-13T10:21:39.783Z,11.00
2018-11-13T10:24:09.057Z,11.00
2018-11-13T10:26:37.576Z,11.00
2018-11-13T10:29:06.257Z,11.10
2018-11-13T10:31:34.812Z,11.10
2018-11-13T10:34:03.406Z,11.10
2018-11-13T10:36:31.955Z,11.10
2018-11-13T10:39:00.503Z,11.10
2018-11-13T10:41:29.146Z,11.10
2018-11-13T10:43:57.680Z,11.20
2018-11-13T10:46:26.259Z,11.20
2018-11-13T10:48:54.825Z,11.20
2018-11-13T10:51:23.324Z,11.20
2018-11-13T10:53:51.876Z,11.10
2018-11-13T10:56:20.454Z,11.10
2018-11-13T10:58:49.029Z,11.10
2018-11-13T11:01:22.807Z,11.10
2018-11-13T11:03:59.320Z,11.10
2018-11-13T11:06:28.351Z,11.10
2018-11-13T11:08:56.956Z,11.10
2018-11-13T11:11:25.556Z,11.10
2018-11-13T11:13:54.219Z,11.10
2018-11-13T11:16:22.680Z,11.20
2018-11-13T11:18:51.466Z,11.20
2018-11-13T11:21:19.959Z,11.20
2018-11-13T11:23:48.543Z,11.20
2018-11-13T11:26:17.146Z,11.30
2018-11-13T11:28:45.656Z,11.30
2018-11-13T11:31:14.231Z,11.40
2018-11-13T11:33:42.780Z,11.40
2018-11-13T11:36:11.321Z,11.40
2018-11-13T11:38:39.937Z,11.40
2018-11-13T11:41:08.424Z,11.40
2018-11-13T11:43:36.975Z,11.40
2018-11-13T11:46:05.580Z,11.40
2018-11-13T11:48:34.110Z,11.50
2018-11-13T11:51:02.655Z,11.50
2018-11-13T11:53:31.209Z,11.60
2018-11-13T11:55:59.783Z,11.60
2018-11-13T11:58:28.364Z,11.60
2018-11-13T12:00:56.900Z,11.60
2018-11-13T12:03:25.441Z,11.60
2018-11-13T12:05:54.032Z,11.60
2018-11-13T12:08:22.604Z,11.60
2018-11-13T12:10:51.185Z,11.60
2018-11-13T12:13:19.869Z,11.60
2018-11-13T12:15:48.416Z,11.60
2018-11-13T12:18:17.001Z,11.60
2018-11-13T12:20:45.545Z,11.60
2018-11-13T12:23:14.100Z,11.70
2018-11-13T12:25:42.848Z,11.70
2018-11-13T12:28:11.325Z,11.70
2018-11-13T12:30:39.883Z,11.70
2018-11-13T12:33:08.416Z,11.70
2018-11-13T12:35:36.940Z,11.70
2018-11-13T12:38:05.621Z,11.80
2018-11-13T12:40:34.161Z,11.80
2018-11-13T12:43:02.716Z,11.70
2018-11-13T12:45:31.305Z,11.70
2018-11-13T12:47:59.856Z,11.70
2018-11-13T12:50:33.860Z,11.70
2018-11-13T12:53:02.480Z,11.70
2018-11-13T12:55:31.094Z,11.70
2018-11-13T12:57:59.593Z,11.70
2018-11-13T13:00:34.605Z,11.60
2018-11-13T13:03:03.156Z,11.70
2018-11-13T13:05:31.739Z,11.60
2018-11-13T13:08:00.325Z,11.60
2018-11-13T13:10:28.840Z,11.60
2018-11-13T13:12:57.420Z,11.60
2018-11-13T13:15:25.998Z,11.60
2018-11-13T13:17:54.601Z,11.60
2018-11-13T13:20:24.529Z,11.60
2018-11-13T13:22:53.256Z,11.60
2018-11-13T13:25:22.866Z,11.60
2018-11-13T13:27:51.425Z,11.60
2018-11-13T13:30:22.168Z,11.60
2018-11-13T13:32:50.904Z,11.50
2018-11-13T13:35:52.767Z,11.60
2018-11-13T13:38:21.288Z,11.50
2018-11-13T13:40:51.110Z,11.60
2018-11-13T13:43:20.040Z,11.60
2018-11-13T13:45:49.092Z,11.60
2018-11-13T13:48:17.936Z,11.60
2018-11-13T13:50:46.536Z,11.50
2018-11-13T13:53:16.077Z,11.50
2018-11-13T13:55:44.811Z,11.60
2018-11-13T13:58:14.080Z,11.60
2018-11-13T14:00:42.676Z,11.50
2018-11-13T14:03:12.019Z,11.60
2018-11-13T14:05:41.028Z,11.60
2018-11-13T14:08:10.396Z,11.50
2018-11-13T14:10:38.973Z,11.50
2018-11-13T14:13:07.624Z,11.50
2018-11-13T14:15:36.364Z,11.40
2018-11-13T14:18:04.803Z,11.40
2018-11-13T14:20:34.215Z,11.40
2018-11-13T14:23:02.817Z,11.40
2018-11-13T14:25:31.428Z,11.50
2018-11-13T14:28:00.082Z,11.40
2018-11-13T14:30:30.469Z,11.40
2018-11-13T14:33:00.412Z,11.40
2018-11-13T14:35:29.049Z,11.40
2018-11-13T14:37:57.860Z,11.40
2018-11-13T14:40:28.712Z,11.40
2018-11-13T14:42:57.436Z,11.40
2018-11-13T14:45:26.626Z,11.40
2018-11-13T14:47:55.220Z,11.30
2018-11-13T14:50:25.105Z,11.30
2018-11-13T14:52:54.036Z,11.30
2018-11-13T14:55:24.719Z,11.30
2018-11-13T14:57:53.768Z,11.30
2018-11-13T15:00:29.380Z,11.30
2018-11-13T15:02:58.711Z,11.30
2018-11-13T15:05:27.896Z,11.30
2018-11-13T15:07:58.784Z,11.30
2018-11-13T15:10:34.690Z,11.20
2018-11-13T15:13:03.308Z,11.20
2018-11-13T15:15:31.887Z,11.20
2018-11-13T15:18:00.464Z,11.10
2018-11-13T15:20:29.072Z,11.10
2018-11-13T15:22:57.604Z,11.00
2018-11-13T15:25:26.218Z,11.00
2018-11-13T15:27:54.757Z,11.00
2018-11-13T15:30:24.833Z,10.90
2018-11-13T15:32:56.600Z,10.90
2018-11-13T15:35:25.132Z,10.80
2018-11-13T15:37:53.735Z,10.80
2018-11-13T15:40:24.545Z,10.80
2018-11-13T15:42:53.099Z,10.70
2018-11-13T15:45:21.952Z,10.70
2018-11-13T15:47:51.248Z,10.80
2018-11-13T15:50:21.111Z,10.80
2018-11-13T15:52:49.696Z,10.80
2018-11-13T15:55:18.477Z,10.80
2018-11-13T15:57:47.481Z,10.80
2018-11-13T16:00:21.392Z,10.70
2018-11-13T16:02:50.024Z,10.70
2018-11-13T16:05:26.464Z,10.70
2018-11-13T16:07:56.264Z,10.60
2018-11-13T16:10:24.925Z,10.60
2018-11-13T16:12:53.573Z,10.50
2018-11-13T16:15:23.018Z,10.40
2018-11-13T16:17:52.351Z,10.40
2018-11-13T16:20:21.072Z,10.30
2018-11-13T16:22:49.624Z,10.30
2018-11-13T16:25:18.228Z,10.20
2018-11-13T16:27:46.792Z,10.20
2018-11-13T16:30:18.814Z,10.10
2018-11-13T16:32:47.920Z,10.10
2018-11-13T16:35:17.441Z,10.10
2018-11-13T16:37:46.676Z,10.00
2018-11-13T16:40:17.548Z,10.00
2018-11-13T16:42:46.075Z,10.00
2018-11-13T16:45:15.788Z,10.00
2018-11-13T16:47:44.540Z,9.90
2018-11-13T16:50:19.444Z,9.90
2018-11-13T16:52:48.084Z,9.90
2018-11-13T16:55:22.081Z,9.90
2018-11-13T16:57:51.379Z,9.90
2018-11-13T17:00:20.387Z,9.80
2018-11-13T17:02:48.982Z,9.80
2018-11-13T17:05:18.466Z,9.80
2018-11-13T17:07:47.124Z,9.80
2018-11-13T17:10:19.036Z,9.70
2018-11-13T17:12:47.902Z,9.70
2018-11-13T17:15:19.039Z,9.70
2018-11-13T17:17:48.515Z,9.60
2018-11-13T17:20:17.322Z,9.60
2018-11-13T17:22:46.441Z,9.60
2018-11-13T17:25:16.283Z,9.60
2018-11-13T17:27:45.864Z,9.60
2018-11-13T17:30:16.905Z,9.60
2018-11-13T17:32:46.067Z,9.50
2018-11-13T17:35:15.905Z,9.50
2018-11-13T17:40:21.208Z,9.50
2018-11-13T17:42:50.789Z,9.50
2018-11-13T17:45:21.722Z,9.40
2018-11-13T17:47:50.384Z,9.40
2018-11-13T17:50:21.536Z,9.40
2018-11-13T17:52:50.461Z,9.40
2018-11-13T17:55:19.557Z,9.30
2018-11-13T17:57:49.280Z,9.40
2018-11-13T18:00:25.381Z,9.30
2018-11-13T18:02:54.049Z,9.30
2018-11-13T18:05:23.652Z,9.30
2018-11-13T18:07:52.668Z,9.30
2018-11-13T18:10:21.445Z,9.20
2018-11-13T18:12:51.037Z,9.20
2018-11-13T18:15:21.702Z,9.20
2018-11-13T18:17:50.469Z,9.20
2018-11-13T18:20:20.318Z,9.10
2018-11-13T18:22:48.892Z,9.10
2018-11-13T18:25:17.546Z,9.10
2018-11-13T18:27:50.124Z,9.10
2018-11-13T18:30:26.857Z,9.10
2018-11-13T18:32:55.976Z,9.00
2018-11-13T18:35:29.703Z,9.00
2018-11-13T18:37:59.093Z,9.00
2018-11-13T18:40:27.833Z,9.00
2018-11-13T18:42:57.682Z,9.00
2018-11-13T18:45:33.980Z,9.00
2018-11-13T18:48:02.573Z,8.90
2018-11-13T18:50:33.537Z,8.90
2018-11-13T18:53:02.174Z,8.90
2018-11-13T18:55:30.844Z,8.90
2018-11-13T18:58:00.141Z,8.90
2018-11-13T19:00:30.762Z,8.90
2018-11-13T19:03:00.036Z,8.90
2018-11-13T19:05:28.810Z,8.80
2018-11-13T19:07:57.537Z,8.80
2018-11-13T19:10:31.553Z,8.80
2018-11-13T19:13:01.291Z,8.80
2018-11-13T19:15:30.899Z,8.70
2018-11-13T19:17:59.579Z,8.70
2018-11-13T19:20:28.160Z,8.70
2018-11-13T19:22:56.745Z,8.70
2018-11-13T19:25:26.663Z,8.60
2018-11-13T19:27:55.939Z,8.60
2018-11-13T19:30:24.579Z,8.60
2018-11-13T19:32:53.183Z,8.60
2018-11-13T19:35:22.078Z,8.60
2018-11-13T19:37:50.640Z,8.60
2018-11-13T19:40:21.564Z,8.60
2018-11-13T19:42:50.781Z,8.60
2018-11-13T19:45:19.879Z,8.60
2018-11-13T19:47:48.363Z,8.50
2018-11-13T19:50:19.304Z,8.40
2018-11-13T19:52:47.878Z,8.30
2018-11-13T19:55:17.022Z,8.30
2018-11-13T19:57:45.956Z,8.20
2018-11-13T20:00:22.016Z,8.10
2018-11-13T20:02:51.432Z,8.10
2018-11-13T20:05:20.051Z,8.00
2018-11-13T20:07:48.691Z,8.00
2018-11-13T20:10:18.588Z,7.90
2018-11-13T20:12:48.057Z,7.90
2018-11-13T20:15:16.841Z,7.80
2018-11-13T20:17:45.475Z,7.70
2018-11-13T20:20:19.592Z,7.70
2018-11-13T20:22:48.571Z,7.70
2018-11-13T20:25:18.568Z,7.60
2018-11-13T20:27:47.243Z,7.60
2018-11-13T20:30:17.882Z,7.50
2018-11-13T20:32:46.476Z,7.50
2018-11-13T20:35:15.102Z,7.50
2018-11-13T20:37:45.703Z,7.50
2018-11-13T20:40:15.712Z,7.50
2018-11-13T20:42:45.252Z,7.50
2018-11-13T20:45:13.828Z,7.50
2018-11-13T20:47:42.393Z,7.50
2018-11-13T20:50:12.776Z,7.40
2018-11-13T20:52:41.309Z,7.40
2018-11-13T20:55:10.384Z,7.40
2018-11-13T20:57:39.256Z,7.40
2018-11-13T21:00:10.520Z,7.40
2018-11-13T21:02:39.187Z,7.40
2018-11-13T21:05:07.724Z,7.40
2018-11-13T21:07:36.537Z,7.40
2018-11-13T21:10:08.863Z,7.40
2018-11-13T21:12:37.486Z,7.40
2018-11-13T21:15:07.980Z,7.40
2018-11-13T21:17:36.513Z,7.30
2018-11-13T21:20:06.428Z,7.30
2018-11-13T21:22:34.953Z,7.30
2018-11-13T21:25:03.624Z,7.30
2018-11-13T21:27:32.732Z,7.20
2018-11-13T21:30:01.331Z,7.20
2018-11-13T21:32:29.888Z,7.10
2018-11-13T21:34:58.436Z,7.10
2018-11-13T21:37:27.357Z,7.00
2018-11-13T21:39:55.900Z,7.00
2018-11-13T21:42:24.586Z,7.00
2018-11-13T21:44:53.140Z,7.00
2018-11-13T21:47:23.231Z,6.90
2018-11-13T21:49:52.005Z,6.80
2018-11-13T21:52:21.185Z,6.80
2018-11-13T21:54:49.812Z,6.70
2018-11-13T21:57:18.434Z,6.60
2018-11-13T21:59:47.022Z,6.70
2018-11-13T22:02:15.560Z,6.70
2018-11-13T22:04:45.344Z,6.70
2018-11-13T22:07:13.922Z,6.60
2018-11-13T22:09:42.612Z,6.60
2018-11-13T22:12:11.246Z,6.50
2018-11-13T22:14:39.782Z,6.50
2018-11-13T22:17:08.336Z,6.50
2018-11-13T22:19:36.893Z,6.50
2018-11-13T22:22:05.503Z,6.60
2018-11-13T22:24:34.088Z,6.60
2018-11-13T22:27:02.743Z,6.60
2018-11-13T22:29:31.225Z,6.60
2018-11-13T22:31:59.784Z,6.60
2018-11-13T22:34:28.324Z,6.50
2018-11-13T22:36:56.887Z,6.50
2018-11-13T22:39:25.421Z,6.40
2018-11-13T22:41:54.123Z,6.40
2018-11-13T22:44:22.702Z,6.40
2018-11-13T22:46:51.217Z,6.40
2018-11-13T22:49:19.741Z,6.40
2018-11-13T22:51:48.321Z,6.40
2018-11-13T22:54:16.877Z,6.30
2018-11-13T22:56:45.436Z,6.30
2018-11-13T22:59:13.984Z,6.30
2018-11-13T23:01:42.516Z,6.30
2018-11-13T23:04:11.176Z,6.30
2018-11-13T23:06:39.729Z,6.30
2018-11-13T23:09:10.524Z,6.20
2018-11-13T23:11:39.058Z,6.20
2018-11-13T23:14:07.642Z,6.10
2018-11-13T23:16:36.397Z,6.10
2018-11-13T23:19:05.195Z,6.10
2018-11-13T23:21:33.775Z,6.20
2018-11-13T23:24:02.351Z,6.10
2018-11-13T23:26:30.934Z,6.20
2018-11-13T23:28:59.437Z,6.10
2018-11-13T23:31:27.994Z,6.10
2018-11-13T23:33:56.576Z,6.20
2018-11-13T23:36:25.108Z,6.20
2018-11-13T23:38:53.649Z,6.20
2018-11-13T23:41:22.185Z,6.20
2018-11-13T23:43:50.733Z,6.20
2018-11-13T23:46:19.304Z,6.20
2018-11-13T23:48:47.824Z,6.20
2018-11-13T23:51:16.371Z,6.20
2018-11-13T23:53:45.024Z,6.20
2018-11-13T23:56:13.472Z,6.20
2018-11-13T23:58:42.004Z,6.30
